<?xml version="1.0" encoding="UTF-8" standalone="no" ?>
<gpx xmlns="http://www.topografix.com/GPX/1/1" xmlns:xsi="http://www.w3.org/2001/XMLSchema-instance" xsi:schemaLocation="http://www.topografix.com/GPX/1/1 http://www.topografix.com/GPX/1/1/gpx.xsd" version="1.1" creator="VisuGPX - https://www.visugpx.com">
  <metadata>
    <name>2022-03-03  Randonnée Vanémont Taintrux.</name>
    <desc><![CDATA[
Départ parking route de Vanémont Taintrux -  la Basse du Jeal -  la Grangeotte -  champ Bastien -  rocher Belle Jambe.]]></desc>
  </metadata>
  <trk>
    <name><![CDATA[2022-03-03 16:46:48]]></name>
    <trkseg>
      <trkpt lat="48.25538" lon="6.82539">
        <ele>421.43</ele>
        <time>2022-03-03T12:48:28Z</time>
      </trkpt>
      <trkpt lat="48.25485" lon="6.82438">
        <ele>436.33</ele>
        <time>2022-03-03T12:52:33Z</time>
      </trkpt>
      <trkpt lat="48.25361" lon="6.82402">
        <ele>440.44</ele>
        <time>2022-03-03T12:54:50Z</time>
      </trkpt>
      <trkpt lat="48.25253" lon="6.82357">
        <ele>448.06</ele>
        <time>2022-03-03T12:56:25Z</time>
      </trkpt>
      <trkpt lat="48.25152" lon="6.82316">
        <ele>457.91</ele>
        <time>2022-03-03T12:58:20Z</time>
      </trkpt>
      <trkpt lat="48.25192" lon="6.82291">
        <ele>473.42</ele>
        <time>2022-03-03T13:00:21Z</time>
      </trkpt>
      <trkpt lat="48.25309" lon="6.82279">
        <ele>485.04</ele>
        <time>2022-03-03T13:01:59Z</time>
      </trkpt>
      <trkpt lat="48.25408" lon="6.82275">
        <ele>494.78</ele>
        <time>2022-03-03T13:03:22Z</time>
      </trkpt>
      <trkpt lat="48.25494" lon="6.82224">
        <ele>504.46</ele>
        <time>2022-03-03T13:04:55Z</time>
      </trkpt>
      <trkpt lat="48.25486" lon="6.82124">
        <ele>509.46</ele>
        <time>2022-03-03T13:09:20Z</time>
      </trkpt>
      <trkpt lat="48.25453" lon="6.82031">
        <ele>509.64</ele>
        <time>2022-03-03T13:12:44Z</time>
      </trkpt>
      <trkpt lat="48.25393" lon="6.81896">
        <ele>510.65</ele>
        <time>2022-03-03T13:14:23Z</time>
      </trkpt>
      <trkpt lat="48.25337" lon="6.81762">
        <ele>511.66</ele>
        <time>2022-03-03T13:16:06Z</time>
      </trkpt>
      <trkpt lat="48.25407" lon="6.81778">
        <ele>513.41</ele>
        <time>2022-03-03T13:17:45Z</time>
      </trkpt>
      <trkpt lat="48.25508" lon="6.8181">
        <ele>512.78</ele>
        <time>2022-03-03T13:19:11Z</time>
      </trkpt>
      <trkpt lat="48.25604" lon="6.81837">
        <ele>512.11</ele>
        <time>2022-03-03T13:20:34Z</time>
      </trkpt>
      <trkpt lat="48.25693" lon="6.81831">
        <ele>514.1</ele>
        <time>2022-03-03T13:21:56Z</time>
      </trkpt>
      <trkpt lat="48.25699" lon="6.8169">
        <ele>512.81</ele>
        <time>2022-03-03T13:23:19Z</time>
      </trkpt>
      <trkpt lat="48.25637" lon="6.81575">
        <ele>513.94</ele>
        <time>2022-03-03T13:24:50Z</time>
      </trkpt>
      <trkpt lat="48.25566" lon="6.8145">
        <ele>514.48</ele>
        <time>2022-03-03T13:26:21Z</time>
      </trkpt>
      <trkpt lat="48.25602" lon="6.81414">
        <ele>514.57</ele>
        <time>2022-03-03T13:27:54Z</time>
      </trkpt>
      <trkpt lat="48.25726" lon="6.81432">
        <ele>513.14</ele>
        <time>2022-03-03T13:29:36Z</time>
      </trkpt>
      <trkpt lat="48.25824" lon="6.81405">
        <ele>512.57</ele>
        <time>2022-03-03T13:31:06Z</time>
      </trkpt>
      <trkpt lat="48.25836" lon="6.81278">
        <ele>510.25</ele>
        <time>2022-03-03T13:34:01Z</time>
      </trkpt>
      <trkpt lat="48.2579" lon="6.81154">
        <ele>508.33</ele>
        <time>2022-03-03T13:35:19Z</time>
      </trkpt>
      <trkpt lat="48.2573" lon="6.8105">
        <ele>508.21</ele>
        <time>2022-03-03T13:36:34Z</time>
      </trkpt>
      <trkpt lat="48.25733" lon="6.80975">
        <ele>507.73</ele>
        <time>2022-03-03T13:38:23Z</time>
      </trkpt>
      <trkpt lat="48.25842" lon="6.81007">
        <ele>507.03</ele>
        <time>2022-03-03T13:40:07Z</time>
      </trkpt>
      <trkpt lat="48.25902" lon="6.80858">
        <ele>505.61</ele>
        <time>2022-03-03T13:41:34Z</time>
      </trkpt>
      <trkpt lat="48.25851" lon="6.80734">
        <ele>504.42</ele>
        <time>2022-03-03T13:42:48Z</time>
      </trkpt>
      <trkpt lat="48.25816" lon="6.80607">
        <ele>503.24</ele>
        <time>2022-03-03T13:44:09Z</time>
      </trkpt>
      <trkpt lat="48.25798" lon="6.80481">
        <ele>502.13</ele>
        <time>2022-03-03T13:45:31Z</time>
      </trkpt>
      <trkpt lat="48.25874" lon="6.80445">
        <ele>501.23</ele>
        <time>2022-03-03T13:46:55Z</time>
      </trkpt>
      <trkpt lat="48.2592" lon="6.80306">
        <ele>502.16</ele>
        <time>2022-03-03T13:48:14Z</time>
      </trkpt>
      <trkpt lat="48.25954" lon="6.80218">
        <ele>502.26</ele>
        <time>2022-03-03T13:50:59Z</time>
      </trkpt>
      <trkpt lat="48.25918" lon="6.80287">
        <ele>493.25</ele>
        <time>2022-03-03T13:56:42Z</time>
      </trkpt>
      <trkpt lat="48.25913" lon="6.80436">
        <ele>482.1</ele>
        <time>2022-03-03T13:58:19Z</time>
      </trkpt>
      <trkpt lat="48.25861" lon="6.8053">
        <ele>471.94</ele>
        <time>2022-03-03T13:59:50Z</time>
      </trkpt>
      <trkpt lat="48.25912" lon="6.80639">
        <ele>462.9</ele>
        <time>2022-03-03T14:01:44Z</time>
      </trkpt>
      <trkpt lat="48.2596" lon="6.80751">
        <ele>452.28</ele>
        <time>2022-03-03T14:03:22Z</time>
      </trkpt>
      <trkpt lat="48.26001" lon="6.80887">
        <ele>439.94</ele>
        <time>2022-03-03T14:04:48Z</time>
      </trkpt>
      <trkpt lat="48.25999" lon="6.8104">
        <ele>429.52</ele>
        <time>2022-03-03T14:06:21Z</time>
      </trkpt>
      <trkpt lat="48.26024" lon="6.81127">
        <ele>425.68</ele>
        <time>2022-03-03T14:09:58Z</time>
      </trkpt>
      <trkpt lat="48.26078" lon="6.81224">
        <ele>417.16</ele>
        <time>2022-03-03T14:11:59Z</time>
      </trkpt>
      <trkpt lat="48.26142" lon="6.81293">
        <ele>417.08</ele>
        <time>2022-03-03T14:14:11Z</time>
      </trkpt>
      <trkpt lat="48.2612" lon="6.81438">
        <ele>418.39</ele>
        <time>2022-03-03T14:15:26Z</time>
      </trkpt>
      <trkpt lat="48.26091" lon="6.81569">
        <ele>419.71</ele>
        <time>2022-03-03T14:16:47Z</time>
      </trkpt>
      <trkpt lat="48.2603" lon="6.81667">
        <ele>420</ele>
        <time>2022-03-03T14:18:04Z</time>
      </trkpt>
      <trkpt lat="48.25999" lon="6.81773">
        <ele>423.97</ele>
        <time>2022-03-03T14:19:43Z</time>
      </trkpt>
      <trkpt lat="48.25953" lon="6.81887">
        <ele>430.74</ele>
        <time>2022-03-03T14:21:17Z</time>
      </trkpt>
      <trkpt lat="48.25943" lon="6.82088">
        <ele>441.92</ele>
        <time>2022-03-03T14:23:09Z</time>
      </trkpt>
      <trkpt lat="48.26022" lon="6.82214">
        <ele>457.15</ele>
        <time>2022-03-03T14:25:19Z</time>
      </trkpt>
      <trkpt lat="48.26025" lon="6.82292">
        <ele>459.72</ele>
        <time>2022-03-03T14:27:05Z</time>
      </trkpt>
      <trkpt lat="48.25914" lon="6.82292">
        <ele>459.89</ele>
        <time>2022-03-03T14:28:41Z</time>
      </trkpt>
      <trkpt lat="48.25891" lon="6.82431">
        <ele>462.07</ele>
        <time>2022-03-03T14:30:52Z</time>
      </trkpt>
      <trkpt lat="48.25889" lon="6.82439">
        <ele>461.22</ele>
        <time>2022-03-03T14:34:54Z</time>
      </trkpt>
      <trkpt lat="48.25889" lon="6.82494">
        <ele>463.47</ele>
        <time>2022-03-03T14:38:50Z</time>
      </trkpt>
      <trkpt lat="48.25871" lon="6.82649">
        <ele>464.96</ele>
        <time>2022-03-03T14:40:29Z</time>
      </trkpt>
      <trkpt lat="48.25861" lon="6.82725">
        <ele>471.41</ele>
        <time>2022-03-03T14:42:15Z</time>
      </trkpt>
      <trkpt lat="48.25792" lon="6.82678">
        <ele>475.75</ele>
        <time>2022-03-03T14:44:09Z</time>
      </trkpt>
      <trkpt lat="48.25684" lon="6.82725">
        <ele>475.48</ele>
        <time>2022-03-03T14:45:42Z</time>
      </trkpt>
      <trkpt lat="48.25628" lon="6.82869">
        <ele>477.12</ele>
        <time>2022-03-03T14:47:12Z</time>
      </trkpt>
      <trkpt lat="48.25623" lon="6.83039">
        <ele>478.45</ele>
        <time>2022-03-03T14:48:41Z</time>
      </trkpt>
      <trkpt lat="48.2568" lon="6.83155">
        <ele>481.81</ele>
        <time>2022-03-03T14:50:09Z</time>
      </trkpt>
      <trkpt lat="48.25758" lon="6.83225">
        <ele>490.57</ele>
        <time>2022-03-03T14:51:43Z</time>
      </trkpt>
      <trkpt lat="48.25768" lon="6.83384">
        <ele>506.24</ele>
        <time>2022-03-03T14:53:36Z</time>
      </trkpt>
      <trkpt lat="48.25836" lon="6.83483">
        <ele>519.6</ele>
        <time>2022-03-03T14:55:33Z</time>
      </trkpt>
      <trkpt lat="48.25869" lon="6.83558">
        <ele>520.72</ele>
        <time>2022-03-03T15:00:17Z</time>
      </trkpt>
      <trkpt lat="48.25802" lon="6.83612">
        <ele>518.15</ele>
        <time>2022-03-03T15:03:17Z</time>
      </trkpt>
      <trkpt lat="48.257" lon="6.83593">
        <ele>519.46</ele>
        <time>2022-03-03T15:05:59Z</time>
      </trkpt>
      <trkpt lat="48.25616" lon="6.83529">
        <ele>511.18</ele>
        <time>2022-03-03T15:07:53Z</time>
      </trkpt>
      <trkpt lat="48.25523" lon="6.83465">
        <ele>490.39</ele>
        <time>2022-03-03T15:09:55Z</time>
      </trkpt>
      <trkpt lat="48.25459" lon="6.83373">
        <ele>489.15</ele>
        <time>2022-03-03T15:11:52Z</time>
      </trkpt>
      <trkpt lat="48.25421" lon="6.83221">
        <ele>482.01</ele>
        <time>2022-03-03T15:14:16Z</time>
      </trkpt>
      <trkpt lat="48.25437" lon="6.83135">
        <ele>472.61</ele>
        <time>2022-03-03T15:18:08Z</time>
      </trkpt>
      <trkpt lat="48.25521" lon="6.83041">
        <ele>464</ele>
        <time>2022-03-03T15:20:18Z</time>
      </trkpt>
      <trkpt lat="48.25532" lon="6.8295">
        <ele>464.9</ele>
        <time>2022-03-03T15:24:24Z</time>
      </trkpt>
      <trkpt lat="48.25523" lon="6.82882">
        <ele>461.48</ele>
        <time>2022-03-03T15:28:57Z</time>
      </trkpt>
      <trkpt lat="48.256" lon="6.82779">
        <ele>460.19</ele>
        <time>2022-03-03T15:31:17Z</time>
      </trkpt>
      <trkpt lat="48.25672" lon="6.82648">
        <ele>460.82</ele>
        <time>2022-03-03T15:33:20Z</time>
      </trkpt>
      <trkpt lat="48.25746" lon="6.82529">
        <ele>458.86</ele>
        <time>2022-03-03T15:35:21Z</time>
      </trkpt>
      <trkpt lat="48.25771" lon="6.82495">
        <ele>459.72</ele>
        <time>2022-03-03T15:38:02Z</time>
      </trkpt>
      <trkpt lat="48.25814" lon="6.82356">
        <ele>450.62</ele>
        <time>2022-03-03T15:39:58Z</time>
      </trkpt>
      <trkpt lat="48.25783" lon="6.82187">
        <ele>447.65</ele>
        <time>2022-03-03T15:41:33Z</time>
      </trkpt>
      <trkpt lat="48.25695" lon="6.82214">
        <ele>451.26</ele>
        <time>2022-03-03T15:43:02Z</time>
      </trkpt>
      <trkpt lat="48.25624" lon="6.82309">
        <ele>451.04</ele>
        <time>2022-03-03T15:44:23Z</time>
      </trkpt>
      <trkpt lat="48.25559" lon="6.82455">
        <ele>452.1</ele>
        <time>2022-03-03T15:45:54Z</time>
      </trkpt>
    </trkseg>
  </trk>
</gpx>